Time;durP1;ratioP1;P1;durP2;ratioP2;P2;SDS_P1;SDS_P2;PMS_P1;PMS_P2;Temp;Humidity;BMP_temperature;BMP_pressure;BME280_temperature;BME280_humidity;BME280_pressure;Samples;Min_cycle;Max_cycle;Signal;HPM_P1;HPM_P2
2022/11/10 00:00:45;;;;;;;3.15;1.55;;;;;;;11.93;100.00;100956.72;4987287;28;20309;-54
2022/11/10 00:03:11;;;;;;;2.35;1.05;;;;;;;11.87;100.00;100969.91;4984424;28;21165;-54
2022/11/10 00:05:38;;;;;;;2.13;1.08;;;;;;;11.88;100.00;100958.50;4979372;28;20258;-54
2022/11/10 00:08:06;;;;;;;3.15;1.05;;;;;;;11.86;100.00;100970.78;4976479;28;20848;-54
2022/11/10 00:10:55;;;;;;;4.88;1.38;;;;;;;11.79;100.00;100966.34;4980562;28;20231;-54
2022/11/10 00:13:21;;;;;;;3.45;1.27;;;;;;;11.87;100.00;100964.63;4981915;28;20275;-54
2022/11/10 00:18:32;;;;;;;3.38;1.80;;;;;;;11.82;100.00;100978.63;4981916;28;20326;-54
2022/11/10 00:21:03;;;;;;;2.10;1.20;;;;;;;11.86;100.00;100981.31;4981747;28;20312;-58
2022/11/10 00:23:29;;;;;;;0.98;0.95;;;;;;;11.84;100.00;100972.53;4983619;28;20317;-54
2022/11/10 00:25:56;;;;;;;1.58;1.08;;;;;;;11.93;100.00;100982.16;4982639;28;20229;-54
2022/11/10 00:28:24;;;;;;;3.10;1.85;;;;;;;11.95;99.92;100985.66;4981976;28;20231;-54
2022/11/10 00:30:50;;;;;;;3.28;1.40;;;;;;;11.96;99.58;100986.53;4977714;28;20317;-60
2022/11/10 00:33:17;;;;;;;1.45;1.35;;;;;;;12.03;99.16;100983.00;4979996;28;20230;-55
2022/11/10 00:35:44;;;;;;;3.50;1.50;;;;;;;12.07;98.96;100995.25;4985508;28;20372;-56
2022/11/10 00:38:10;;;;;;;2.60;1.42;;;;;;;12.05;99.23;100992.66;4987006;28;20636;-54
2022/11/10 00:40:37;;;;;;;5.25;1.60;;;;;;;12.07;99.24;100993.50;4987289;28;20233;-54
2022/11/10 00:43:03;;;;;;;2.80;1.30;;;;;;;12.06;99.02;100993.53;4983159;28;20321;-55
2022/11/10 00:45:31;;;;;;;3.97;1.35;;;;;;;12.14;98.13;100986.47;4984641;28;20591;-57
2022/11/10 00:47:58;;;;;;;5.65;1.60;;;;;;;12.11;98.54;100999.63;4989085;28;20704;-60
2022/11/10 00:50:24;;;;;;;6.18;1.40;;;;;;;12.22;97.90;100989.09;4993114;28;20236;-54
2022/11/10 00:52:51;;;;;;;3.40;1.30;;;;;;;12.13;98.13;100990.00;4983365;28;20316;-54
2022/11/10 00:55:18;;;;;;;5.03;1.83;;;;;;;12.10;98.26;101000.53;4981994;28;20281;-54
2022/11/10 00:57:44;;;;;;;2.22;1.25;;;;;;;12.16;97.45;100995.25;4977871;28;20233;-53
2022/11/10 01:00:12;;;;;;;3.75;1.48;;;;;;;12.17;97.35;101003.13;4982316;28;20233;-54
2022/11/10 01:02:40;;;;;;;5.03;1.90;;;;;;;12.17;97.57;101010.16;4979816;28;20313;-56
2022/11/10 01:05:07;;;;;;;7.60;2.10;;;;;;;12.24;96.72;101014.50;4985098;28;20325;-55
2022/11/10 01:07:33;;;;;;;3.30;1.40;;;;;;;12.15;97.52;101011.94;4981891;28;20238;-54
2022/11/10 01:10:00;;;;;;;4.85;1.75;;;;;;;12.15;97.65;101009.31;4979689;28;20234;-55
2022/11/10 01:12:28;;;;;;;3.80;1.38;;;;;;;12.10;98.34;101016.31;4981509;28;20316;-53
2022/11/10 01:14:55;;;;;;;6.68;1.75;;;;;;;12.06;97.84;101010.19;4979244;28;20317;-54
2022/11/10 01:17:22;;;;;;;3.67;1.70;;;;;;;12.28;96.53;101012.75;4981772;28;22446;-56
2022/11/10 01:19:50;;;;;;;2.45;1.45;;;;;;;12.10;96.75;101006.66;4981503;28;20320;-56
2022/11/10 01:22:17;;;;;;;5.35;1.77;;;;;;;12.01;97.14;101017.22;4983481;28;20977;-54
2022/11/10 01:24:43;;;;;;;6.03;1.52;;;;;;;12.11;97.23;101018.97;4985643;28;20237;-58
2022/11/10 01:27:10;;;;;;;3.28;1.42;;;;;;;12.18;96.93;101019.81;4982790;28;20257;-54
2022/11/10 01:29:36;;;;;;;3.30;1.40;;;;;;;12.25;95.85;101020.66;4984108;28;20422;-55
2022/11/10 01:32:03;;;;;;;2.45;1.30;;;;;;;12.28;94.79;101025.91;4984627;28;20230;-54
2022/11/10 01:34:30;;;;;;;3.90;1.67;;;;;;;12.23;95.22;101031.19;4985023;28;20535;-54
2022/11/10 01:36:58;;;;;;;5.32;1.42;;;;;;;12.16;95.58;101035.59;4980878;28;20775;-55
2022/11/10 01:39:24;;;;;;;2.73;1.50;;;;;;;12.09;95.83;101046.16;4984342;28;20839;-55
2022/11/10 01:41:51;;;;;;;3.60;1.10;;;;;;;12.12;96.25;101041.75;4982291;28;20253;-53
2022/11/10 01:44:19;;;;;;;6.63;2.08;;;;;;;12.13;96.40;101040.00;4983209;28;20239;-55
2022/11/10 01:46:46;;;;;;;3.40;1.27;;;;;;;12.06;96.68;101046.16;4976989;28;20778;-56
2022/11/10 01:49:13;;;;;;;2.50;1.98;;;;;;;12.03;96.61;101046.16;4979230;28;20237;-55
2022/11/10 01:51:42;;;;;;;2.67;1.58;;;;;;;12.11;96.67;101053.19;4980139;28;20265;-53
2022/11/10 01:54:13;;;;;;;3.38;1.15;;;;;;;11.99;96.93;101055.81;4978003;28;20810;-54
2022/11/10 01:56:43;;;;;;;2.15;1.35;;;;;;;12.04;97.06;101068.97;4985515;28;20320;-54
2022/11/10 01:59:13;;;;;;;2.80;1.45;;;;;;;12.04;97.01;101066.31;4984629;28;20662;-53
2022/11/10 02:01:40;;;;;;;5.45;1.30;;;;;;;12.02;96.78;101066.34;4981308;28;20240;-53
2022/11/10 02:04:09;;;;;;;4.00;1.67;;;;;;;12.02;97.85;101070.72;4979370;28;20313;-54
2022/11/10 02:06:38;;;;;;;1.45;1.02;;;;;;;12.02;98.21;101070.72;4980113;28;20234;-56
2022/11/10 02:09:05;;;;;;;2.80;1.20;;;;;;;11.94;98.33;101069.00;4978152;28;20473;-55
2022/11/10 02:11:34;;;;;;;3.88;1.20;;;;;;;11.93;98.34;101071.59;4976904;28;20490;-54
2022/11/10 02:14:01;;;;;;;2.63;1.70;;;;;;;11.89;98.31;101081.25;4964560;28;20265;-54
2022/11/10 02:16:28;;;;;;;6.88;2.22;;;;;;;11.91;98.91;101087.41;4974358;28;20312;-53
2022/11/10 02:18:55;;;;;;;4.78;1.55;;;;;;;11.96;98.82;101084.75;4974495;28;20296;-55
2022/11/10 02:21:23;;;;;;;5.18;1.30;;;;;;;12.00;98.10;101088.28;4981659;28;20226;-53
2022/11/10 02:23:51;;;;;;;2.90;1.38;;;;;;;11.99;97.96;101094.41;4980577;28;20800;-53
2022/11/10 02:26:20;;;;;;;3.15;1.50;;;;;;;11.97;98.50;101090.91;4979838;28;20325;-54
2022/11/10 02:28:47;;;;;;;5.78;1.67;;;;;;;12.01;98.13;101087.41;4983668;28;20522;-55
2022/11/10 02:31:15;;;;;;;1.85;1.50;;;;;;;12.03;98.25;101099.66;4976151;28;20230;-55
2022/11/10 02:33:42;;;;;;;3.58;1.80;;;;;;;11.93;98.58;101096.19;4977022;28;20249;-54
2022/11/10 02:36:09;;;;;;;3.55;1.63;;;;;;;12.02;98.13;101094.41;4977641;28;20591;-55
2022/11/10 02:38:37;;;;;;;4.68;1.50;;;;;;;11.97;98.28;101094.44;4972478;28;20237;-54
2022/11/10 02:41:04;;;;;;;2.17;1.10;;;;;;;11.91;99.48;101099.69;4978457;28;20234;-54
2022/11/10 02:43:31;;;;;;;3.13;1.83;;;;;;;12.03;99.04;101101.44;4979496;28;20315;-54
2022/11/10 02:45:58;;;;;;;3.85;1.95;;;;;;;11.98;99.23;101105.84;4976017;28;20300;-53
2022/11/10 02:48:25;;;;;;;2.97;1.20;;;;;;;12.03;97.53;101099.66;4972687;28;20222;-54
2022/11/10 02:50:52;;;;;;;4.25;1.70;;;;;;;12.07;97.56;101117.19;4975236;28;20229;-54
2022/11/10 02:53:19;;;;;;;3.70;1.75;;;;;;;12.04;97.45;101113.69;4977507;28;20231;-54
2022/11/10 02:55:47;;;;;;;4.13;1.63;;;;;;;12.05;97.57;101118.97;4977116;28;20307;-54
2022/11/10 02:58:14;;;;;;;8.18;1.67;;;;;;;12.04;96.88;101116.31;4974198;28;20246;-54
2022/11/10 03:00:41;;;;;;;4.38;1.60;;;;;;;12.05;97.45;101112.84;4978258;28;20432;-55
2022/11/10 03:03:08;;;;;;;3.20;1.73;;;;;;;11.92;97.77;101112.84;4971862;28;20297;-53
2022/11/10 03:05:35;;;;;;;6.33;1.93;;;;;;;12.05;97.89;101126.00;4972636;28;20606;-54
2022/11/10 03:08:03;;;;;;;3.83;1.27;;;;;;;11.95;97.79;101127.75;4975176;28;20265;-55
2022/11/10 03:10:30;;;;;;;4.07;1.60;;;;;;;11.93;98.46;101130.41;4974149;28;20231;-54
2022/11/10 03:13:00;;;;;;;2.17;1.33;;;;;;;11.89;99.04;101128.63;4969218;28;20241;-55
2022/11/10 03:15:28;;;;;;;3.80;1.48;;;;;;;11.96;98.68;101144.41;4966606;28;20266;-54
2022/11/10 03:17:56;;;;;;;3.47;1.65;;;;;;;11.99;98.36;101145.28;4980051;28;20296;-55
2022/11/10 03:20:23;;;;;;;1.92;1.63;;;;;;;11.99;97.85;101160.22;4982140;28;20233;-54
2022/11/10 03:22:50;;;;;;;6.53;1.87;;;;;;;11.91;98.17;101161.09;4981723;28;20262;-55
2022/11/10 03:25:17;;;;;;;3.35;1.55;;;;;;;12.00;98.14;101161.94;4986279;28;20581;-55
2022/11/10 03:27:43;;;;;;;3.53;1.63;;;;;;;11.83;99.62;101162.81;4982380;28;20234;-57
2022/11/10 03:30:12;;;;;;;5.63;1.90;;;;;;;11.82;99.79;101163.66;4990442;28;20230;-54
2022/11/10 03:32:39;;;;;;;4.68;1.65;;;;;;;11.83;99.59;101175.97;4987523;28;20244;-54
2022/11/10 03:35:07;;;;;;;9.32;2.38;;;;;;;11.84;99.26;101172.47;4985481;28;20816;-55
2022/11/10 03:37:33;;;;;;;4.07;2.10;;;;;;;11.73;99.30;101184.72;4979603;28;20241;-54
2022/11/10 03:40:00;;;;;;;7.38;2.00;;;;;;;11.66;100.00;101182.97;4968761;28;20237;-53
2022/11/10 03:42:27;;;;;;;6.50;1.47;;;;;;;11.60;100.00;101178.56;4980802;28;20284;-54
2022/11/10 03:44:54;;;;;;;3.35;1.80;;;;;;;11.58;100.00;101185.56;4974916;28;20788;-55
2022/11/10 03:47:22;;;;;;;4.55;2.00;;;;;;;11.65;100.00;101181.19;4983530;28;20224;-53
2022/11/10 03:49:49;;;;;;;4.03;1.55;;;;;;;11.56;100.00;101189.06;4983522;28;20244;-54
2022/11/10 03:52:17;;;;;;;2.33;1.55;;;;;;;11.52;100.00;101190.81;4977791;28;20238;-54
2022/11/10 03:54:44;;;;;;;4.07;1.73;;;;;;;11.46;100.00;101196.91;4977966;28;20234;-55
2022/11/10 03:57:11;;;;;;;9.13;1.90;;;;;;;11.44;100.00;101198.69;4985270;28;20230;-55
2022/11/10 03:59:37;;;;;;;4.50;1.65;;;;;;;11.49;100.00;101197.81;4983516;28;20245;-55
2022/11/10 04:02:04;;;;;;;5.60;1.27;;;;;;;11.45;100.00;101195.19;4983807;28;20241;-54
2022/11/10 04:10:02;;;;;;;3.27;1.80;;;;;;;11.41;100.00;101200.44;4979901;28;20245;-54
2022/11/10 04:18:19;;;;;;;3.60;1.50;;;;;;;11.21;100.00;101224.00;4970419;28;20236;-55
2022/11/10 04:20:47;;;;;;;3.93;1.70;;;;;;;11.17;100.00;101225.75;4979448;28;20237;-54
2022/11/10 04:23:33;;;;;;;2.70;1.83;;;;;;;11.09;100.00;101234.44;4976519;28;20229;-55
2022/11/10 04:28:49;;;;;;;3.43;1.83;;;;;;;11.23;100.00;101240.63;4975028;28;20248;-55
2022/11/10 04:31:17;;;;;;;2.37;1.77;;;;;;;11.24;100.00;101247.69;4971512;28;20334;-55
2022/11/10 04:33:44;;;;;;;7.50;2.03;;;;;;;11.17;100.00;101246.75;4978843;28;20238;-55
2022/11/10 04:36:14;;;;;;;5.90;2.20;;;;;;;11.10;100.00;101255.50;4984410;28;20364;-54
2022/11/10 04:38:41;;;;;;;4.00;2.17;;;;;;;11.10;100.00;101257.25;4981801;28;20256;-53
2022/11/10 04:41:09;;;;;;;4.60;2.13;;;;;;;11.09;100.00;101269.50;4980137;28;20241;-53
2022/11/10 04:43:36;;;;;;;5.53;1.60;;;;;;;10.96;100.00;101262.44;4982359;28;20226;-53
2022/11/10 04:46:04;;;;;;;5.40;2.50;;;;;;;10.94;100.00;101264.16;4981226;28;20242;-55
2022/11/10 04:48:32;;;;;;;5.17;1.77;;;;;;;10.89;100.00;101260.63;4981547;28;20280;-53
2022/11/10 04:51:03;;;;;;;4.77;1.77;;;;;;;10.85;100.00;101265.00;4977334;28;20253;-54
2022/11/10 04:53:32;;;;;;;4.47;1.60;;;;;;;10.81;100.00;101257.97;4978962;28;20238;-54
2022/11/10 04:56:00;;;;;;;4.20;2.07;;;;;;;10.80;100.00;101265.81;4981142;28;20260;-54
2022/11/10 04:58:27;;;;;;;3.97;2.23;;;;;;;10.78;100.00;101265.81;4980131;28;20282;-54
2022/11/10 05:00:54;;;;;;;7.17;1.80;;;;;;;10.79;100.00;101264.94;4981170;28;20260;-55
2022/11/10 05:03:21;;;;;;;8.63;2.43;;;;;;;10.82;100.00;101269.34;4981291;28;20880;-55
2022/11/10 05:05:49;;;;;;;7.27;2.03;;;;;;;10.76;100.00;101275.41;4981973;28;20234;-55
2022/11/10 05:08:16;;;;;;;6.40;1.93;;;;;;;10.75;100.00;101271.03;4978459;28;20742;-54
2022/11/10 05:10:44;;;;;;;4.03;2.00;;;;;;;10.76;100.00;101275.41;4980852;28;20748;-54
2022/11/10 05:13:12;;;;;;;6.97;2.13;;;;;;;10.70;100.00;101283.25;4977771;28;20778;-55
2022/11/10 05:15:41;;;;;;;4.77;2.40;;;;;;;10.71;100.00;101285.91;4972496;28;20316;-54
2022/11/10 05:18:07;;;;;;;3.80;1.73;;;;;;;10.61;100.00;101284.06;4978678;28;20238;-56
2022/11/10 05:20:34;;;;;;;4.07;2.07;;;;;;;10.63;100.00;101294.56;4973999;28;20798;-54
2022/11/10 05:25:47;;;;;;;6.33;2.47;;;;;;;10.56;100.00;101295.41;4973756;28;20369;-55
2022/11/10 05:28:15;;;;;;;4.80;2.73;;;;;;;10.65;100.00;101303.34;4970724;28;20233;-54
2022/11/10 05:30:42;;;;;;;4.43;2.33;;;;;;;10.63;100.00;101311.19;4980791;28;20242;-54
2022/11/10 05:33:10;;;;;;;5.57;2.53;;;;;;;10.63;100.00;101315.59;4975676;28;20230;-53
2022/11/10 05:35:37;;;;;;;4.83;1.90;;;;;;;10.61;100.00;101318.22;4982301;28;20681;-54
2022/11/10 05:38:04;;;;;;;4.90;2.03;;;;;;;10.48;100.00;101332.97;4975650;28;20236;-53
2022/11/10 05:40:32;;;;;;;8.20;2.47;;;;;;;10.62;100.00;101329.59;4980809;28;20233;-55
2022/11/10 05:43:00;;;;;;;4.90;2.43;;;;;;;10.57;100.00;101336.56;4976839;28;20321;-54
2022/11/10 05:45:28;;;;;;;5.80;2.40;;;;;;;10.59;100.00;101340.06;4974483;28;20230;-54
2022/11/10 05:47:55;;;;;;;6.77;3.17;;;;;;;10.58;100.00;101344.44;4975550;28;20238;-54
2022/11/10 05:50:23;;;;;;;11.23;2.93;;;;;;;10.62;100.00;101353.22;4980781;28;20230;-55
2022/11/10 05:52:52;;;;;;;7.87;2.60;;;;;;;10.56;100.00;101353.16;4979517;28;20321;-53
2022/11/10 05:55:20;;;;;;;5.50;2.37;;;;;;;10.45;100.00;101355.69;4979076;28;20777;-55
2022/11/10 05:57:48;;;;;;;8.20;2.57;;;;;;;10.54;100.00;101357.53;4981908;28;20234;-54
2022/11/10 06:00:20;;;;;;;3.83;2.03;;;;;;;10.50;100.00;101373.25;4977266;28;20237;-55
2022/11/10 06:02:47;;;;;;;6.87;2.40;;;;;;;10.45;100.00;101374.94;4978325;28;20276;-54
2022/11/10 06:05:14;;;;;;;6.13;2.20;;;;;;;10.46;100.00;101376.72;4981049;28;20325;-57
2022/11/10 06:07:41;;;;;;;6.23;2.40;;;;;;;10.34;100.00;101387.06;4976682;28;20238;-54
2022/11/10 06:10:08;;;;;;;4.27;2.33;;;;;;;10.25;100.00;101397.47;4978671;28;20651;-54
2022/11/10 06:12:35;;;;;;;3.97;1.97;;;;;;;10.27;100.00;101390.50;4979541;28;20238;-55
2022/11/10 06:15:03;;;;;;;4.07;1.93;;;;;;;10.36;100.00;101395.00;4974502;28;20339;-55
2022/11/10 06:17:31;;;;;;;4.00;2.47;;;;;;;10.34;100.00;101402.81;4977094;28;20229;-54
2022/11/10 06:19:58;;;;;;;4.33;2.87;;;;;;;10.25;100.00;101405.34;4977696;28;20234;-54
2022/11/10 06:22:24;;;;;;;5.03;2.23;;;;;;;10.21;100.00;101414.00;4980359;28;20230;-54
2022/11/10 06:24:51;;;;;;;5.57;2.50;;;;;;;10.24;100.00;101416.69;4975143;28;20896;-54
2022/11/10 06:27:18;;;;;;;10.23;2.90;;;;;;;10.16;100.00;101427.09;4977266;28;20233;-53
2022/11/10 06:29:45;;;;;;;6.30;2.47;;;;;;;10.16;100.00;101431.47;4976888;28;20299;-54
2022/11/10 06:32:12;;;;;;;9.83;3.43;;;;;;;10.17;100.00;101441.09;4976895;28;20254;-54
2022/11/10 06:34:41;;;;;;;10.73;3.57;;;;;;;10.17;100.00;101447.22;4975141;28;20230;-55
2022/11/10 06:37:07;;;;;;;4.53;2.47;;;;;;;10.12;100.00;101453.28;4975572;28;20237;-53
2022/11/10 06:39:34;;;;;;;5.17;3.10;;;;;;;10.13;100.00;101457.66;4976121;28;20242;-53
2022/11/10 06:42:01;;;;;;;6.23;2.70;;;;;;;10.16;100.00;101457.69;4976577;28;20252;-54
2022/11/10 06:44:28;;;;;;;10.27;2.70;;;;;;;10.07;100.00;101461.06;4977916;28;20233;-54
2022/11/10 06:46:55;;;;;;;10.00;3.00;;;;;;;10.01;100.00;101477.63;4976025;28;20336;-53
2022/11/10 06:49:22;;;;;;;3.60;2.57;;;;;;;10.01;100.00;101482.88;4974713;28;20313;-54
2022/11/10 06:51:51;;;;;;;7.83;2.70;;;;;;;9.99;100.00;101495.09;4981856;28;21003;-54
2022/11/10 06:54:18;;;;;;;8.00;3.20;;;;;;;10.00;100.00;101496.88;4983989;28;20229;-54
2022/11/10 06:56:45;;;;;;;5.97;2.53;;;;;;;10.04;100.00;101498.66;4984174;28;20261;-55
2022/11/10 06:59:12;;;;;;;6.40;2.60;;;;;;;10.02;100.00;101503.00;4985062;28;20303;-55
2022/11/10 07:01:39;;;;;;;7.00;3.73;;;;;;;10.12;100.00;101501.41;4977172;28;20297;-54
2022/11/10 07:04:06;;;;;;;6.40;2.80;;;;;;;10.17;100.00;101514.56;4982396;28;20760;-55
2022/11/10 07:06:33;;;;;;;5.23;2.40;;;;;;;10.21;100.00;101526.84;4983975;28;20326;-54
2022/11/10 07:09:02;;;;;;;5.30;2.40;;;;;;;10.26;100.00;101522.59;4990046;28;20257;-54
2022/11/10 07:11:29;;;;;;;8.87;3.17;;;;;;;10.30;100.00;101531.41;4985873;28;20337;-60
2022/11/10 07:13:55;;;;;;;5.63;2.37;;;;;;;10.37;100.00;101544.59;4983096;28;20892;-54
2022/11/10 07:16:22;;;;;;;4.03;2.37;;;;;;;10.46;100.00;101547.38;4974073;28;20338;-54
2022/11/10 07:18:49;;;;;;;6.97;2.53;;;;;;;10.42;100.00;101550.78;4981246;28;20237;-54
2022/11/10 07:21:16;;;;;;;5.30;2.63;;;;;;;10.46;100.00;101538.63;4980039;28;20230;-59
2022/11/10 07:23:45;;;;;;;6.53;2.93;;;;;;;10.50;100.00;101556.16;4976150;28;20285;-54
2022/11/10 07:26:13;;;;;;;4.40;2.83;;;;;;;10.49;100.00;101550.03;4977911;28;20244;-54
2022/11/10 07:28:41;;;;;;;6.03;2.27;;;;;;;10.57;100.00;101554.50;4982949;28;20238;-54
2022/11/10 07:31:08;;;;;;;5.50;2.40;;;;;;;10.55;100.00;101570.22;4981378;28;20602;-55
2022/11/10 07:33:35;;;;;;;6.13;3.43;;;;;;;10.49;100.00;101576.28;4976628;28;20243;-54
2022/11/10 07:36:03;;;;;;;2.93;2.40;;;;;;;10.44;100.00;101570.06;4979090;28;20277;-54
2022/11/10 07:38:30;;;;;;;4.80;2.50;;;;;;;10.51;100.00;101574.53;4979854;28;20975;-54
2022/11/10 07:40:57;;;;;;;4.17;2.80;;;;;;;10.43;100.00;101578.81;4982017;28;20225;-54
2022/11/10 07:43:26;;;;;;;7.63;3.03;;;;;;;10.43;100.00;101576.19;4981336;28;20249;-55
2022/11/10 07:45:53;;;;;;;5.33;3.03;;;;;;;10.40;100.00;101586.66;4979876;28;20320;-55
2022/11/10 07:48:20;;;;;;;6.10;2.90;;;;;;;10.40;100.00;101591.91;4982599;28;20654;-53
2022/11/10 07:50:48;;;;;;;5.53;2.67;;;;;;;10.39;100.00;101594.50;4981466;28;20739;-54
2022/11/10 07:53:18;;;;;;;3.97;2.30;;;;;;;10.37;100.00;101607.63;4982936;28;20838;-54
2022/11/10 07:55:46;;;;;;;4.77;2.37;;;;;;;10.42;100.00;101599.78;4984022;28;20738;-55
2022/11/10 07:58:14;;;;;;;4.90;2.17;;;;;;;10.51;100.00;101608.69;4979523;28;20241;-54
2022/11/10 08:00:44;;;;;;;6.30;2.30;;;;;;;10.72;100.00;101604.56;4976748;28;20257;-54
2022/11/10 08:03:12;;;;;;;7.40;3.00;;;;;;;10.66;100.00;101604.47;4974802;28;20689;-54
2022/11/10 08:05:40;;;;;;;7.10;3.00;;;;;;;10.70;100.00;101608.91;4979474;28;20261;-54
2022/11/10 08:08:07;;;;;;;5.70;2.60;;;;;;;10.89;100.00;101623.16;4979645;28;20242;-54
2022/11/10 08:10:34;;;;;;;6.90;3.17;;;;;;;10.85;100.00;101619.63;4980108;28;21252;-54
2022/11/10 08:13:04;;;;;;;7.57;3.00;;;;;;;10.97;100.00;101616.25;4980857;28;20234;-54
2022/11/10 08:15:32;;;;;;;5.87;3.00;;;;;;;11.23;100.00;101620.06;4972535;28;20273;-54
2022/11/10 08:18:01;;;;;;;9.83;2.97;;;;;;;11.24;100.00;101626.19;4979185;28;20334;-55
2022/11/10 08:20:29;;;;;;;5.03;2.73;;;;;;;11.28;100.00;101635.88;4982841;28;20237;-54
2022/11/10 08:22:59;;;;;;;8.83;3.17;;;;;;;11.35;100.00;101634.19;4977874;28;20230;-54
2022/11/10 08:25:26;;;;;;;6.97;3.13;;;;;;;11.34;100.00;101638.56;4980536;28;20242;-54
2022/11/10 08:27:59;;;;;;;7.75;2.83;;;;;;;11.37;100.00;101633.34;4978286;28;20284;-54
2022/11/10 08:30:26;;;;;;;5.77;3.10;;;;;;;11.35;100.00;101640.31;4977536;28;20240;-53
2022/11/10 08:32:55;;;;;;;7.03;3.00;;;;;;;11.47;100.00;101637.81;4978431;28;20799;-55
2022/11/10 08:35:24;;;;;;;13.27;3.90;;;;;;;11.58;100.00;101647.53;4974710;28;20298;-54
2022/11/10 08:37:52;;;;;;;7.23;2.90;;;;;;;11.66;100.00;101649.41;4977261;28;20254;-55
2022/11/10 08:40:20;;;;;;;8.48;3.63;;;;;;;11.73;100.00;101657.34;4973307;28;20234;-54
2022/11/10 08:42:47;;;;;;;7.13;3.20;;;;;;;11.87;100.00;101661.91;4977404;28;20783;-53
2022/11/10 08:45:15;;;;;;;5.55;2.78;;;;;;;11.82;100.00;101662.69;4985021;28;20277;-54
2022/11/10 08:47:43;;;;;;;8.27;3.65;;;;;;;11.96;100.00;101666.34;4981229;28;20244;-54
2022/11/10 08:50:10;;;;;;;10.00;3.20;;;;;;;11.89;100.00;101673.31;4977244;28;20321;-54
2022/11/10 08:52:39;;;;;;;5.32;3.08;;;;;;;11.93;100.00;101676.84;4980411;28;20296;-54
2022/11/10 08:55:06;;;;;;;5.97;2.88;;;;;;;11.92;100.00;101681.22;4983137;28;20241;-54
2022/11/10 08:57:33;;;;;;;7.75;3.25;;;;;;;11.90;100.00;101688.25;4983669;28;20229;-54
2022/11/10 09:00:00;;;;;;;8.97;3.87;;;;;;;12.00;100.00;101690.94;4975484;28;20724;-54
2022/11/10 09:02:26;;;;;;;4.88;3.42;;;;;;;12.01;100.00;101698.88;4978273;28;20329;-55
2022/11/10 09:04:54;;;;;;;9.85;3.30;;;;;;;12.12;100.00;101704.22;4971374;28;20949;-53
2022/11/10 09:07:20;;;;;;;11.18;6.03;;;;;;;12.25;100.00;101705.16;4977675;28;20226;-54
2022/11/10 09:09:49;;;;;;;6.55;3.70;;;;;;;12.25;100.00;101706.09;4973925;28;20236;-56
2022/11/10 09:12:16;;;;;;;6.13;3.38;;;;;;;12.32;100.00;101715.78;4976477;28;20237;-55
2022/11/10 09:14:43;;;;;;;11.80;4.53;;;;;;;12.20;100.00;101718.31;4971472;28;20258;-55
2022/11/10 09:17:10;;;;;;;8.33;3.90;;;;;;;12.16;100.00;101727.94;4974412;28;20684;-54
2022/11/10 09:19:37;;;;;;;7.45;3.20;;;;;;;12.23;100.00;101728.88;4979125;28;20233;-54
2022/11/10 09:22:04;;;;;;;8.40;3.60;;;;;;;12.13;100.00;101721.75;4972974;28;20293;-55
2022/11/10 09:24:31;;;;;;;9.07;3.67;;;;;;;12.16;100.00;101729.69;4974339;28;20755;-56
2022/11/10 09:27:00;;;;;;;6.90;3.30;;;;;;;12.01;100.00;101733.06;4972312;28;20263;-54
2022/11/10 09:29:29;;;;;;;10.23;3.63;;;;;;;12.03;100.00;101735.72;4978669;28;20233;-54
2022/11/10 09:31:56;;;;;;;8.25;3.65;;;;;;;12.08;100.00;101744.56;4976425;28;20245;-54
2022/11/10 09:34:23;;;;;;;7.50;3.90;;;;;;;12.03;100.00;101739.22;4977267;28;20745;-54
2022/11/10 09:36:50;;;;;;;7.43;3.57;;;;;;;12.17;100.00;101728.81;4977389;28;20315;-54
2022/11/10 09:39:17;;;;;;;7.15;3.80;;;;;;;12.21;100.00;101738.50;4975676;28;20229;-54
2022/11/10 09:41:46;;;;;;;6.90;4.05;;;;;;;12.27;100.00;101741.19;4975390;28;20289;-54
2022/11/10 09:44:18;;;;;;;9.23;3.25;;;;;;;12.24;100.00;101745.56;4981024;28;20308;-54
2022/11/10 09:46:48;;;;;;;4.93;3.10;;;;;;;12.31;100.00;101750.00;4974728;28;20652;-56
2022/11/10 09:49:25;;;;;;;10.63;4.32;;;;;;;12.39;100.00;101754.47;4981544;28;20253;-59
2022/11/10 09:51:54;;;;;;;8.73;4.43;;;;;;;12.46;100.00;101752.78;4978784;28;20236;-55
2022/11/10 09:54:30;;;;;;;5.03;2.88;;;;;;;12.43;100.00;101758.00;4980521;28;20230;-54
2022/11/10 09:57:00;;;;;;;8.77;4.07;;;;;;;12.46;100.00;101757.13;4977340;28;20234;-54
2022/11/10 09:59:31;;;;;;;5.43;2.50;;;;;;;12.54;100.00;101761.59;4973187;28;20235;-55
2022/11/10 10:02:01;;;;;;;10.07;3.53;;;;;;;12.55;100.00;101762.47;4974861;28;20226;-54
2022/11/10 10:04:40;;;;;;;9.82;3.20;;;;;;;12.60;99.87;101759.03;4973802;28;20782;-55
2022/11/10 10:07:10;;;;;;;5.68;3.78;;;;;;;12.54;100.00;101766.00;4968035;28;20308;-55
2022/11/10 10:09:42;;;;;;;7.00;3.05;;;;;;;12.55;100.00;101762.47;4978891;28;20288;-54
2022/11/10 10:12:22;;;;;;;8.65;3.75;;;;;;;12.48;100.00;101755.41;4977431;28;20245;-55
2022/11/10 10:15:09;;;;;;;9.57;3.60;;;;;;;12.41;100.00;101763.25;4980300;28;20316;-53
2022/11/10 10:17:42;;;;;;;6.32;3.85;;;;;;;12.34;100.00;101761.44;4980058;28;20253;-55
2022/11/10 10:20:16;;;;;;;8.05;3.67;;;;;;;12.44;100.00;101753.63;4975114;28;20332;-53
2022/11/10 10:23:00;;;;;;;4.45;3.22;;;;;;;12.53;99.90;101764.22;4967771;28;20483;-54
2022/11/10 10:25:28;;;;;;;8.40;3.33;;;;;;;12.52;100.00;101763.31;4979593;28;20888;-54
2022/11/10 10:28:02;;;;;;;9.45;3.38;;;;;;;12.55;99.88;101762.47;4978351;28;20230;-54
2022/11/10 10:30:30;;;;;;;7.75;3.00;;;;;;;12.53;99.55;101758.94;4980060;28;20237;-53
2022/11/10 10:33:01;;;;;;;11.82;3.55;;;;;;;12.52;100.00;101765.09;4980686;28;20266;-53
2022/11/10 10:35:30;;;;;;;10.80;2.97;;;;;;;12.58;100.00;101760.75;4986249;28;20238;-55
2022/11/10 10:37:57;;;;;;;6.00;3.08;;;;;;;12.68;100.00;101759.06;4982526;28;20273;-53
2022/11/10 10:40:24;;;;;;;13.65;3.45;;;;;;;12.78;99.56;101766.16;4977698;28;20239;-53
2022/11/10 10:42:51;;;;;;;9.70;5.63;;;;;;;12.82;98.88;101772.34;4981410;28;20313;-53
2022/11/10 10:45:21;;;;;;;7.75;3.38;;;;;;;12.99;97.89;101775.09;4971845;28;20242;-54
2022/11/10 10:47:51;;;;;;;6.78;2.85;;;;;;;13.04;97.72;101776.84;4980413;28;20328;-54
2022/11/10 10:50:27;;;;;;;6.68;2.47;;;;;;;13.07;97.14;101778.63;4982991;28;20240;-54
2022/11/10 10:53:14;;;;;;;8.23;3.38;;;;;;;13.04;97.48;101790.03;4984354;28;20227;-55
2022/11/10 10:55:46;;;;;;;8.98;3.17;;;;;;;13.14;95.94;101781.31;4979437;28;20321;-52
2022/11/10 10:58:24;;;;;;;8.82;3.10;;;;;;;13.15;96.35;101790.09;4981182;28;20755;-52
2022/11/10 11:00:53;;;;;;;6.82;3.20;;;;;;;13.03;96.49;101787.41;4976848;28;20496;-53
2022/11/10 11:03:25;;;;;;;6.90;2.80;;;;;;;13.14;96.67;101796.25;4981610;28;20240;-54
2022/11/10 11:06:04;;;;;;;7.68;2.70;;;;;;;13.14;96.53;101790.97;4982453;28;20617;-54
2022/11/10 11:08:31;;;;;;;4.63;2.75;;;;;;;13.19;95.83;101794.50;4984133;28;20653;-52
2022/11/10 11:11:07;;;;;;;6.18;2.45;;;;;;;13.30;95.85;101777.03;4982221;28;20230;-54
2022/11/10 11:13:34;;;;;;;7.75;3.10;;;;;;;13.41;94.78;101778.81;4980847;28;20230;-54
2022/11/10 11:16:01;;;;;;;7.88;3.15;;;;;;;13.33;95.57;101784.94;4984152;28;20246;-53
2022/11/10 11:18:31;;;;;;;4.85;3.08;;;;;;;13.43;95.51;101787.63;4981744;28;20233;-54
2022/11/10 11:21:01;;;;;;;6.25;2.75;;;;;;;13.31;96.35;101786.69;4983963;28;20232;-53
2022/11/10 11:24:00;;;;;;;8.85;3.17;;;;;;;13.36;95.56;101795.50;4977985;28;20230;-53
2022/11/10 11:26:35;;;;;;;11.32;3.03;;;;;;;13.46;94.33;101792.91;4935691;28;20308;-54
2022/11/10 11:29:09;;;;;;;5.30;2.97;;;;;;;13.50;94.50;101789.41;4979946;28;20242;-52
2022/11/10 11:31:42;;;;;;;9.05;3.50;;;;;;;13.50;93.99;101790.28;4975940;28;20796;-54
2022/11/10 11:34:16;;;;;;;10.20;2.78;;;;;;;13.62;93.77;101797.38;4980904;28;20230;-54
2022/11/10 11:36:50;;;;;;;5.85;2.42;;;;;;;13.74;92.81;101799.19;4976869;28;20242;-53
2022/11/10 11:39:27;;;;;;;5.68;2.42;;;;;;;13.76;92.30;101805.31;4978332;28;20237;-56
2022/11/10 11:41:59;;;;;;;4.05;2.72;;;;;;;13.68;91.58;101804.44;4979952;28;20233;-53
2022/11/10 11:44:36;;;;;;;13.20;3.55;;;;;;;13.63;91.62;101801.78;4977599;28;20654;-57